sensor_id;sensor_type;location;lat;lon;timestamp;P1;durP1;ratioP1;P2;durP2;ratioP2
68951;SDS011;56000;51.146;17.112;2023-07-29T00:00:28;6.20;;;3.50;;
68951;SDS011;56000;51.146;17.112;2023-07-29T00:03:21;3.40;;;3.00;;
68951;SDS011;56000;51.146;17.112;2023-07-29T00:05:55;4.70;;;3.10;;
68951;SDS011;56000;51.146;17.112;2023-07-29T00:08:28;3.80;;;3.00;;
68951;SDS011;56000;51.146;17.112;2023-07-29T00:11:01;5.00;;;2.80;;
68951;SDS011;56000;51.146;17.112;2023-07-29T00:13:34;3.70;;;3.10;;
68951;SDS011;56000;51.146;17.112;2023-07-29T00:16:07;3.60;;;2.90;;
68951;SDS011;56000;51.146;17.112;2023-07-29T00:18:41;4.00;;;2.90;;
68951;SDS011;56000;51.146;17.112;2023-07-29T00:21:14;9.80;;;3.80;;
68951;SDS011;56000;51.146;17.112;2023-07-29T00:23:47;6.20;;;3.70;;
68951;SDS011;56000;51.146;17.112;2023-07-29T00:26:20;5.10;;;3.80;;
68951;SDS011;56000;51.146;17.112;2023-07-29T00:28:55;8.80;;;3.90;;
68951;SDS011;56000;51.146;17.112;2023-07-29T00:31:30;5.50;;;3.30;;
68951;SDS011;56000;51.146;17.112;2023-07-29T00:34:03;4.20;;;2.90;;
68951;SDS011;56000;51.146;17.112;2023-07-29T00:36:36;5.80;;;3.40;;
68951;SDS011;56000;51.146;17.112;2023-07-29T00:39:09;4.70;;;3.60;;
68951;SDS011;56000;51.146;17.112;2023-07-29T00:41:42;4.30;;;3.20;;
68951;SDS011;56000;51.146;17.112;2023-07-29T00:44:15;6.30;;;3.70;;
68951;SDS011;56000;51.146;17.112;2023-07-29T00:46:48;7.90;;;3.40;;
68951;SDS011;56000;51.146;17.112;2023-07-29T00:49:23;5.80;;;3.80;;
68951;SDS011;56000;51.146;17.112;2023-07-29T00:51:57;4.60;;;3.60;;
68951;SDS011;56000;51.146;17.112;2023-07-29T00:54:30;7.40;;;3.70;;
68951;SDS011;56000;51.146;17.112;2023-07-29T00:57:03;3.40;;;3.00;;
68951;SDS011;56000;51.146;17.112;2023-07-29T00:59:37;3.50;;;3.10;;
68951;SDS011;56000;51.146;17.112;2023-07-29T01:02:11;4.30;;;3.50;;
68951;SDS011;56000;51.146;17.112;2023-07-29T01:04:45;3.90;;;3.10;;
68951;SDS011;56000;51.146;17.112;2023-07-29T01:07:23;7.60;;;3.30;;
68951;SDS011;56000;51.146;17.112;2023-07-29T01:10:04;4.80;;;3.70;;
68951;SDS011;56000;51.146;17.112;2023-07-29T01:12:48;5.00;;;3.40;;
68951;SDS011;56000;51.146;17.112;2023-07-29T01:15:28;5.60;;;4.10;;
68951;SDS011;56000;51.146;17.112;2023-07-29T01:18:06;6.60;;;4.10;;
68951;SDS011;56000;51.146;17.112;2023-07-29T01:20:44;6.20;;;3.50;;
68951;SDS011;56000;51.146;17.112;2023-07-29T01:23:28;4.60;;;3.30;;
68951;SDS011;56000;51.146;17.112;2023-07-29T01:26:02;5.00;;;3.40;;
68951;SDS011;56000;51.146;17.112;2023-07-29T01:28:36;5.60;;;3.40;;
68951;SDS011;56000;51.146;17.112;2023-07-29T01:31:12;6.60;;;3.50;;
68951;SDS011;56000;51.146;17.112;2023-07-29T01:34:01;10.80;;;4.00;;
68951;SDS011;56000;51.146;17.112;2023-07-29T01:36:42;6.50;;;3.70;;
68951;SDS011;56000;51.146;17.112;2023-07-29T01:39:17;6.10;;;3.40;;
68951;SDS011;56000;51.146;17.112;2023-07-29T01:41:52;8.10;;;3.90;;
68951;SDS011;56000;51.146;17.112;2023-07-29T01:44:26;9.80;;;4.00;;
68951;SDS011;56000;51.146;17.112;2023-07-29T01:47:00;4.80;;;3.30;;
68951;SDS011;56000;51.146;17.112;2023-07-29T01:49:37;8.30;;;4.00;;
68951;SDS011;56000;51.146;17.112;2023-07-29T01:52:10;4.30;;;3.10;;
68951;SDS011;56000;51.146;17.112;2023-07-29T01:54:43;6.70;;;3.50;;
68951;SDS011;56000;51.146;17.112;2023-07-29T01:57:18;5.10;;;3.60;;
68951;SDS011;56000;51.146;17.112;2023-07-29T01:59:51;4.30;;;3.50;;
68951;SDS011;56000;51.146;17.112;2023-07-29T02:02:24;4.80;;;3.30;;
68951;SDS011;56000;51.146;17.112;2023-07-29T02:04:57;4.60;;;3.30;;
68951;SDS011;56000;51.146;17.112;2023-07-29T02:07:30;6.70;;;3.30;;
68951;SDS011;56000;51.146;17.112;2023-07-29T02:10:04;4.40;;;3.30;;
68951;SDS011;56000;51.146;17.112;2023-07-29T02:12:38;4.30;;;3.20;;
68951;SDS011;56000;51.146;17.112;2023-07-29T02:15:12;4.50;;;3.20;;
68951;SDS011;56000;51.146;17.112;2023-07-29T02:17:45;6.40;;;3.30;;
68951;SDS011;56000;51.146;17.112;2023-07-29T02:20:18;4.50;;;3.30;;
68951;SDS011;56000;51.146;17.112;2023-07-29T02:22:52;7.80;;;3.70;;
68951;SDS011;56000;51.146;17.112;2023-07-29T02:25:25;4.30;;;2.80;;
68951;SDS011;56000;51.146;17.112;2023-07-29T02:27:58;4.80;;;3.40;;
68951;SDS011;56000;51.146;17.112;2023-07-29T02:30:33;6.40;;;3.40;;
68951;SDS011;56000;51.146;17.112;2023-07-29T02:33:07;7.00;;;3.40;;
68951;SDS011;56000;51.146;17.112;2023-07-29T02:35:41;5.30;;;3.40;;
68951;SDS011;56000;51.146;17.112;2023-07-29T02:38:14;4.10;;;3.40;;
68951;SDS011;56000;51.146;17.112;2023-07-29T02:40:47;4.40;;;3.70;;
68951;SDS011;56000;51.146;17.112;2023-07-29T02:43:20;5.30;;;3.80;;
68951;SDS011;56000;51.146;17.112;2023-07-29T02:45:54;6.00;;;3.80;;
68951;SDS011;56000;51.146;17.112;2023-07-29T02:48:27;6.00;;;3.10;;
68951;SDS011;56000;51.146;17.112;2023-07-29T02:51:01;5.60;;;3.60;;
68951;SDS011;56000;51.146;17.112;2023-07-29T02:53:34;6.00;;;3.60;;
68951;SDS011;56000;51.146;17.112;2023-07-29T02:56:07;4.00;;;3.00;;
68951;SDS011;56000;51.146;17.112;2023-07-29T02:58:41;4.80;;;3.50;;
68951;SDS011;56000;51.146;17.112;2023-07-29T03:01:15;5.10;;;3.60;;
68951;SDS011;56000;51.146;17.112;2023-07-29T03:03:48;5.80;;;3.10;;
68951;SDS011;56000;51.146;17.112;2023-07-29T03:06:21;3.80;;;3.10;;
68951;SDS011;56000;51.146;17.112;2023-07-29T03:08:55;4.50;;;3.60;;
68951;SDS011;56000;51.146;17.112;2023-07-29T03:11:28;8.20;;;3.60;;
68951;SDS011;56000;51.146;17.112;2023-07-29T03:14:02;5.60;;;3.40;;
68951;SDS011;56000;51.146;17.112;2023-07-29T03:16:35;6.00;;;3.40;;
68951;SDS011;56000;51.146;17.112;2023-07-29T03:19:08;5.10;;;3.20;;
68951;SDS011;56000;51.146;17.112;2023-07-29T03:21:42;4.00;;;3.50;;
68951;SDS011;56000;51.146;17.112;2023-07-29T03:24:15;5.20;;;3.60;;
68951;SDS011;56000;51.146;17.112;2023-07-29T03:26:49;4.30;;;3.20;;
68951;SDS011;56000;51.146;17.112;2023-07-29T03:29:22;5.50;;;3.20;;
68951;SDS011;56000;51.146;17.112;2023-07-29T03:31:55;6.60;;;3.50;;
68951;SDS011;56000;51.146;17.112;2023-07-29T03:34:28;7.80;;;3.20;;
68951;SDS011;56000;51.146;17.112;2023-07-29T03:37:02;5.10;;;3.60;;
68951;SDS011;56000;51.146;17.112;2023-07-29T03:39:35;5.20;;;3.70;;
68951;SDS011;56000;51.146;17.112;2023-07-29T03:42:08;3.90;;;3.00;;
68951;SDS011;56000;51.146;17.112;2023-07-29T03:44:42;5.60;;;3.70;;
68951;SDS011;56000;51.146;17.112;2023-07-29T03:47:15;7.40;;;3.70;;
68951;SDS011;56000;51.146;17.112;2023-07-29T03:49:48;5.00;;;3.10;;
68951;SDS011;56000;51.146;17.112;2023-07-29T03:52:22;5.70;;;3.20;;
68951;SDS011;56000;51.146;17.112;2023-07-29T03:54:56;9.30;;;3.50;;
68951;SDS011;56000;51.146;17.112;2023-07-29T03:57:29;3.50;;;3.10;;
68951;SDS011;56000;51.146;17.112;2023-07-29T04:00:02;5.10;;;3.50;;
68951;SDS011;56000;51.146;17.112;2023-07-29T04:02:44;6.20;;;3.80;;
68951;SDS011;56000;51.146;17.112;2023-07-29T04:05:17;4.60;;;3.60;;
68951;SDS011;56000;51.146;17.112;2023-07-29T04:07:50;5.70;;;3.60;;
68951;SDS011;56000;51.146;17.112;2023-07-29T04:10:24;5.30;;;3.50;;
68951;SDS011;56000;51.146;17.112;2023-07-29T04:12:57;4.80;;;3.30;;
68951;SDS011;56000;51.146;17.112;2023-07-29T04:15:30;7.00;;;3.60;;
68951;SDS011;56000;51.146;17.112;2023-07-29T04:18:04;5.80;;;3.90;;
68951;SDS011;56000;51.146;17.112;2023-07-29T04:20:37;5.30;;;3.60;;
68951;SDS011;56000;51.146;17.112;2023-07-29T04:23:10;3.60;;;3.30;;
68951;SDS011;56000;51.146;17.112;2023-07-29T04:25:43;8.50;;;3.90;;
68951;SDS011;56000;51.146;17.112;2023-07-29T04:28:16;6.40;;;3.40;;
68951;SDS011;56000;51.146;17.112;2023-07-29T04:30:49;7.50;;;4.00;;
68951;SDS011;56000;51.146;17.112;2023-07-29T04:33:22;4.60;;;3.60;;
68951;SDS011;56000;51.146;17.112;2023-07-29T04:35:55;6.30;;;3.40;;
68951;SDS011;56000;51.146;17.112;2023-07-29T04:38:32;4.70;;;3.40;;
68951;SDS011;56000;51.146;17.112;2023-07-29T04:41:08;4.10;;;3.10;;
68951;SDS011;56000;51.146;17.112;2023-07-29T04:43:41;4.10;;;3.30;;
68951;SDS011;56000;51.146;17.112;2023-07-29T04:46:14;4.00;;;3.50;;
68951;SDS011;56000;51.146;17.112;2023-07-29T04:48:48;8.20;;;3.50;;
68951;SDS011;56000;51.146;17.112;2023-07-29T04:51:21;4.20;;;3.70;;
68951;SDS011;56000;51.146;17.112;2023-07-29T04:53:54;7.40;;;3.20;;
68951;SDS011;56000;51.146;17.112;2023-07-29T04:56:27;5.10;;;3.50;;
68951;SDS011;56000;51.146;17.112;2023-07-29T04:59:00;4.00;;;3.10;;
68951;SDS011;56000;51.146;17.112;2023-07-29T05:01:34;4.70;;;2.80;;
68951;SDS011;56000;51.146;17.112;2023-07-29T05:04:07;4.80;;;2.90;;
68951;SDS011;56000;51.146;17.112;2023-07-29T05:06:41;6.60;;;3.50;;
68951;SDS011;56000;51.146;17.112;2023-07-29T05:09:17;4.10;;;3.40;;
68951;SDS011;56000;51.146;17.112;2023-07-29T05:11:51;6.70;;;3.40;;
68951;SDS011;56000;51.146;17.112;2023-07-29T05:14:24;5.80;;;3.20;;
68951;SDS011;56000;51.146;17.112;2023-07-29T05:16:57;4.40;;;2.80;;
68951;SDS011;56000;51.146;17.112;2023-07-29T05:19:30;5.60;;;3.10;;
68951;SDS011;56000;51.146;17.112;2023-07-29T05:22:04;5.30;;;3.50;;
68951;SDS011;56000;51.146;17.112;2023-07-29T05:24:37;6.50;;;3.20;;
68951;SDS011;56000;51.146;17.112;2023-07-29T05:27:10;5.40;;;3.40;;
68951;SDS011;56000;51.146;17.112;2023-07-29T05:29:43;3.10;;;2.60;;
68951;SDS011;56000;51.146;17.112;2023-07-29T05:32:16;5.10;;;2.90;;
68951;SDS011;56000;51.146;17.112;2023-07-29T05:34:50;7.40;;;2.80;;
68951;SDS011;56000;51.146;17.112;2023-07-29T05:37:24;5.00;;;3.00;;
68951;SDS011;56000;51.146;17.112;2023-07-29T05:39:58;6.20;;;3.70;;
68951;SDS011;56000;51.146;17.112;2023-07-29T05:42:32;5.40;;;3.00;;
68951;SDS011;56000;51.146;17.112;2023-07-29T05:45:07;5.20;;;2.60;;
68951;SDS011;56000;51.146;17.112;2023-07-29T05:47:41;7.70;;;2.90;;
68951;SDS011;56000;51.146;17.112;2023-07-29T05:50:15;5.50;;;2.50;;
68951;SDS011;56000;51.146;17.112;2023-07-29T05:52:49;7.10;;;2.60;;
68951;SDS011;56000;51.146;17.112;2023-07-29T05:55:22;3.10;;;2.80;;
68951;SDS011;56000;51.146;17.112;2023-07-29T05:57:55;3.90;;;2.40;;
68951;SDS011;56000;51.146;17.112;2023-07-29T06:00:28;6.60;;;3.10;;
68951;SDS011;56000;51.146;17.112;2023-07-29T06:03:02;6.80;;;3.50;;
68951;SDS011;56000;51.146;17.112;2023-07-29T06:05:35;4.50;;;2.70;;
68951;SDS011;56000;51.146;17.112;2023-07-29T06:08:08;4.70;;;2.50;;
68951;SDS011;56000;51.146;17.112;2023-07-29T06:10:42;4.10;;;2.50;;
68951;SDS011;56000;51.146;17.112;2023-07-29T06:13:15;3.10;;;2.40;;
68951;SDS011;56000;51.146;17.112;2023-07-29T06:15:48;4.80;;;2.40;;
68951;SDS011;56000;51.146;17.112;2023-07-29T06:18:21;4.40;;;2.50;;
68951;SDS011;56000;51.146;17.112;2023-07-29T06:20:54;2.80;;;2.20;;
68951;SDS011;56000;51.146;17.112;2023-07-29T06:23:27;4.10;;;2.60;;
68951;SDS011;56000;51.146;17.112;2023-07-29T06:26:00;7.00;;;2.00;;
68951;SDS011;56000;51.146;17.112;2023-07-29T06:28:34;5.00;;;1.60;;
68951;SDS011;56000;51.146;17.112;2023-07-29T06:31:07;5.30;;;1.60;;
68951;SDS011;56000;51.146;17.112;2023-07-29T06:33:40;3.70;;;1.70;;
68951;SDS011;56000;51.146;17.112;2023-07-29T06:36:13;1.80;;;1.60;;
68951;SDS011;56000;51.146;17.112;2023-07-29T06:38:47;2.10;;;1.90;;
68951;SDS011;56000;51.146;17.112;2023-07-29T06:41:20;1.70;;;1.50;;
68951;SDS011;56000;51.146;17.112;2023-07-29T06:43:53;3.20;;;1.60;;
68951;SDS011;56000;51.146;17.112;2023-07-29T06:46:26;1.90;;;1.60;;
68951;SDS011;56000;51.146;17.112;2023-07-29T06:48:59;5.30;;;1.80;;
68951;SDS011;56000;51.146;17.112;2023-07-29T06:51:32;2.30;;;1.70;;
68951;SDS011;56000;51.146;17.112;2023-07-29T06:54:05;2.50;;;1.80;;
68951;SDS011;56000;51.146;17.112;2023-07-29T06:56:39;3.30;;;1.50;;
68951;SDS011;56000;51.146;17.112;2023-07-29T06:59:12;1.70;;;1.60;;
68951;SDS011;56000;51.146;17.112;2023-07-29T07:01:45;3.10;;;1.70;;
68951;SDS011;56000;51.146;17.112;2023-07-29T07:04:18;1.80;;;1.60;;
68951;SDS011;56000;51.146;17.112;2023-07-29T07:06:51;1.70;;;1.40;;
68951;SDS011;56000;51.146;17.112;2023-07-29T07:09:24;2.00;;;1.70;;
68951;SDS011;56000;51.146;17.112;2023-07-29T07:11:57;2.10;;;1.70;;
68951;SDS011;56000;51.146;17.112;2023-07-29T07:14:31;2.60;;;1.70;;
68951;SDS011;56000;51.146;17.112;2023-07-29T07:17:04;2.70;;;1.70;;
68951;SDS011;56000;51.146;17.112;2023-07-29T07:19:42;2.20;;;1.80;;
68951;SDS011;56000;51.146;17.112;2023-07-29T07:22:15;2.00;;;1.70;;
68951;SDS011;56000;51.146;17.112;2023-07-29T07:24:48;1.90;;;1.80;;
68951;SDS011;56000;51.146;17.112;2023-07-29T07:27:21;3.30;;;1.50;;
68951;SDS011;56000;51.146;17.112;2023-07-29T07:29:54;1.70;;;1.60;;
68951;SDS011;56000;51.146;17.112;2023-07-29T07:32:27;2.50;;;1.50;;
68951;SDS011;56000;51.146;17.112;2023-07-29T07:35:01;2.60;;;1.60;;
68951;SDS011;56000;51.146;17.112;2023-07-29T07:37:34;3.60;;;2.30;;
68951;SDS011;56000;51.146;17.112;2023-07-29T07:40:08;5.20;;;1.50;;
68951;SDS011;56000;51.146;17.112;2023-07-29T07:42:42;4.20;;;1.60;;
68951;SDS011;56000;51.146;17.112;2023-07-29T07:45:15;4.70;;;1.90;;
68951;SDS011;56000;51.146;17.112;2023-07-29T07:47:48;7.30;;;2.20;;
68951;SDS011;56000;51.146;17.112;2023-07-29T07:50:22;2.90;;;1.90;;
68951;SDS011;56000;51.146;17.112;2023-07-29T07:52:55;1.60;;;1.50;;
68951;SDS011;56000;51.146;17.112;2023-07-29T07:55:28;3.50;;;2.30;;
68951;SDS011;56000;51.146;17.112;2023-07-29T07:58:01;4.20;;;2.00;;
68951;SDS011;56000;51.146;17.112;2023-07-29T08:00:35;3.40;;;2.00;;
68951;SDS011;56000;51.146;17.112;2023-07-29T08:03:08;3.90;;;1.90;;
68951;SDS011;56000;51.146;17.112;2023-07-29T08:05:41;7.60;;;1.90;;
68951;SDS011;56000;51.146;17.112;2023-07-29T08:08:15;3.50;;;1.90;;
68951;SDS011;56000;51.146;17.112;2023-07-29T08:10:49;2.50;;;1.80;;
68951;SDS011;56000;51.146;17.112;2023-07-29T08:13:23;4.40;;;1.80;;
68951;SDS011;56000;51.146;17.112;2023-07-29T08:15:56;2.60;;;1.70;;
68951;SDS011;56000;51.146;17.112;2023-07-29T08:18:30;4.00;;;1.60;;
68951;SDS011;56000;51.146;17.112;2023-07-29T08:21:03;2.70;;;1.80;;
68951;SDS011;56000;51.146;17.112;2023-07-29T08:23:37;4.40;;;1.90;;
68951;SDS011;56000;51.146;17.112;2023-07-29T08:26:10;5.30;;;1.80;;
68951;SDS011;56000;51.146;17.112;2023-07-29T08:28:43;7.00;;;2.00;;
68951;SDS011;56000;51.146;17.112;2023-07-29T08:31:16;4.50;;;2.00;;
68951;SDS011;56000;51.146;17.112;2023-07-29T08:33:49;2.30;;;1.70;;
68951;SDS011;56000;51.146;17.112;2023-07-29T08:36:22;2.20;;;1.60;;
68951;SDS011;56000;51.146;17.112;2023-07-29T08:38:56;3.10;;;1.60;;
68951;SDS011;56000;51.146;17.112;2023-07-29T08:41:31;4.20;;;1.80;;
68951;SDS011;56000;51.146;17.112;2023-07-29T08:44:11;3.40;;;1.30;;
68951;SDS011;56000;51.146;17.112;2023-07-29T08:46:49;5.50;;;2.20;;
68951;SDS011;56000;51.146;17.112;2023-07-29T08:49:24;4.60;;;1.80;;
68951;SDS011;56000;51.146;17.112;2023-07-29T08:51:58;1.60;;;1.50;;
68951;SDS011;56000;51.146;17.112;2023-07-29T08:54:32;1.90;;;1.70;;
68951;SDS011;56000;51.146;17.112;2023-07-29T08:57:06;2.70;;;2.00;;
68951;SDS011;56000;51.146;17.112;2023-07-29T08:59:40;2.40;;;1.60;;
68951;SDS011;56000;51.146;17.112;2023-07-29T09:02:13;2.00;;;1.50;;
68951;SDS011;56000;51.146;17.112;2023-07-29T09:04:47;2.70;;;1.50;;
68951;SDS011;56000;51.146;17.112;2023-07-29T09:07:20;1.20;;;1.20;;
68951;SDS011;56000;51.146;17.112;2023-07-29T09:09:53;1.60;;;1.20;;
68951;SDS011;56000;51.146;17.112;2023-07-29T09:12:26;1.70;;;1.10;;
68951;SDS011;56000;51.146;17.112;2023-07-29T09:15:00;15.50;;;9.60;;
68951;SDS011;56000;51.146;17.112;2023-07-29T09:17:34;7.60;;;4.60;;
68951;SDS011;56000;51.146;17.112;2023-07-29T09:20:09;3.80;;;1.80;;
68951;SDS011;56000;51.146;17.112;2023-07-29T09:22:43;4.40;;;2.80;;
68951;SDS011;56000;51.146;17.112;2023-07-29T09:25:16;2.90;;;1.70;;
68951;SDS011;56000;51.146;17.112;2023-07-29T09:27:58;2.80;;;1.50;;
68951;SDS011;56000;51.146;17.112;2023-07-29T09:30:32;1.50;;;1.40;;
68951;SDS011;56000;51.146;17.112;2023-07-29T09:33:05;1.40;;;1.30;;
68951;SDS011;56000;51.146;17.112;2023-07-29T09:35:39;1.70;;;1.40;;
68951;SDS011;56000;51.146;17.112;2023-07-29T09:38:15;1.30;;;1.20;;
68951;SDS011;56000;51.146;17.112;2023-07-29T09:40:48;3.70;;;1.40;;
68951;SDS011;56000;51.146;17.112;2023-07-29T09:43:28;1.90;;;1.20;;
68951;SDS011;56000;51.146;17.112;2023-07-29T09:46:03;1.60;;;1.20;;
68951;SDS011;56000;51.146;17.112;2023-07-29T09:48:38;1.40;;;1.20;;
68951;SDS011;56000;51.146;17.112;2023-07-29T09:51:13;1.30;;;1.20;;
68951;SDS011;56000;51.146;17.112;2023-07-29T09:53:47;1.60;;;1.30;;
68951;SDS011;56000;51.146;17.112;2023-07-29T09:56:26;1.30;;;1.10;;
68951;SDS011;56000;51.146;17.112;2023-07-29T09:59:00;1.60;;;1.30;;
68951;SDS011;56000;51.146;17.112;2023-07-29T10:01:35;1.30;;;1.20;;
68951;SDS011;56000;51.146;17.112;2023-07-29T10:04:09;1.30;;;1.00;;
68951;SDS011;56000;51.146;17.112;2023-07-29T10:06:44;12.90;;;1.90;;
68951;SDS011;56000;51.146;17.112;2023-07-29T10:09:18;7.30;;;1.50;;
68951;SDS011;56000;51.146;17.112;2023-07-29T10:11:53;2.00;;;1.40;;
68951;SDS011;56000;51.146;17.112;2023-07-29T10:14:28;1.70;;;1.00;;
68951;SDS011;56000;51.146;17.112;2023-07-29T10:17:04;1.90;;;1.30;;
68951;SDS011;56000;51.146;17.112;2023-07-29T10:19:37;2.90;;;2.20;;
68951;SDS011;56000;51.146;17.112;2023-07-29T10:22:12;3.20;;;1.30;;
68951;SDS011;56000;51.146;17.112;2023-07-29T10:24:48;6.40;;;1.90;;
68951;SDS011;56000;51.146;17.112;2023-07-29T10:27:26;3.10;;;1.60;;
68951;SDS011;56000;51.146;17.112;2023-07-29T10:30:00;2.10;;;1.40;;
68951;SDS011;56000;51.146;17.112;2023-07-29T10:32:35;3.20;;;1.20;;
68951;SDS011;56000;51.146;17.112;2023-07-29T10:35:10;1.70;;;1.40;;
68951;SDS011;56000;51.146;17.112;2023-07-29T10:37:43;3.40;;;1.30;;
68951;SDS011;56000;51.146;17.112;2023-07-29T10:40:21;2.70;;;1.50;;
68951;SDS011;56000;51.146;17.112;2023-07-29T10:43:09;1.50;;;1.40;;
68951;SDS011;56000;51.146;17.112;2023-07-29T10:45:44;3.10;;;1.60;;
68951;SDS011;56000;51.146;17.112;2023-07-29T10:48:43;3.30;;;1.60;;
68951;SDS011;56000;51.146;17.112;2023-07-29T10:51:29;1.80;;;1.40;;
68951;SDS011;56000;51.146;17.112;2023-07-29T10:54:11;1.70;;;1.60;;
68951;SDS011;56000;51.146;17.112;2023-07-29T10:59:34;4.50;;;1.60;;
68951;SDS011;56000;51.146;17.112;2023-07-29T11:02:15;2.20;;;1.70;;
68951;SDS011;56000;51.146;17.112;2023-07-29T11:04:51;2.80;;;2.30;;
68951;SDS011;56000;51.146;17.112;2023-07-29T11:07:25;1.90;;;1.70;;
68951;SDS011;56000;51.146;17.112;2023-07-29T11:10:03;4.10;;;1.70;;
68951;SDS011;56000;51.146;17.112;2023-07-29T11:12:41;1.50;;;1.40;;
68951;SDS011;56000;51.146;17.112;2023-07-29T11:15:22;3.80;;;1.60;;
68951;SDS011;56000;51.146;17.112;2023-07-29T11:17:57;1.80;;;1.70;;
68951;SDS011;56000;51.146;17.112;2023-07-29T11:20:32;2.10;;;1.90;;
68951;SDS011;56000;51.146;17.112;2023-07-29T11:23:06;3.70;;;1.80;;
68951;SDS011;56000;51.146;17.112;2023-07-29T11:25:39;5.10;;;1.50;;
68951;SDS011;56000;51.146;17.112;2023-07-29T11:28:12;1.70;;;1.50;;
68951;SDS011;56000;51.146;17.112;2023-07-29T11:30:46;2.90;;;1.50;;
68951;SDS011;56000;51.146;17.112;2023-07-29T11:33:21;3.10;;;1.70;;
68951;SDS011;56000;51.146;17.112;2023-07-29T11:35:55;2.60;;;1.60;;
68951;SDS011;56000;51.146;17.112;2023-07-29T11:38:29;1.60;;;1.40;;
68951;SDS011;56000;51.146;17.112;2023-07-29T11:41:06;1.60;;;1.40;;
68951;SDS011;56000;51.146;17.112;2023-07-29T11:43:40;1.90;;;1.70;;
68951;SDS011;56000;51.146;17.112;2023-07-29T11:46:14;2.30;;;1.70;;
68951;SDS011;56000;51.146;17.112;2023-07-29T11:48:53;2.50;;;1.50;;
68951;SDS011;56000;51.146;17.112;2023-07-29T11:51:26;1.90;;;1.60;;
68951;SDS011;56000;51.146;17.112;2023-07-29T11:53:59;1.70;;;1.60;;
68951;SDS011;56000;51.146;17.112;2023-07-29T11:56:33;1.40;;;1.30;;
68951;SDS011;56000;51.146;17.112;2023-07-29T11:59:08;3.10;;;1.30;;
68951;SDS011;56000;51.146;17.112;2023-07-29T12:01:42;2.10;;;1.30;;
68951;SDS011;56000;51.146;17.112;2023-07-29T12:04:16;3.00;;;1.30;;
68951;SDS011;56000;51.146;17.112;2023-07-29T12:06:49;1.30;;;1.20;;
68951;SDS011;56000;51.146;17.112;2023-07-29T12:09:23;1.50;;;1.40;;
68951;SDS011;56000;51.146;17.112;2023-07-29T12:11:56;1.40;;;1.30;;
68951;SDS011;56000;51.146;17.112;2023-07-29T12:14:31;1.50;;;1.40;;
68951;SDS011;56000;51.146;17.112;2023-07-29T12:17:05;1.90;;;1.20;;
68951;SDS011;56000;51.146;17.112;2023-07-29T12:19:40;3.20;;;1.40;;
68951;SDS011;56000;51.146;17.112;2023-07-29T12:22:19;3.80;;;1.20;;
68951;SDS011;56000;51.146;17.112;2023-07-29T12:24:52;1.10;;;1.10;;
68951;SDS011;56000;51.146;17.112;2023-07-29T12:27:26;1.40;;;1.30;;
68951;SDS011;56000;51.146;17.112;2023-07-29T12:30:02;3.10;;;1.40;;
68951;SDS011;56000;51.146;17.112;2023-07-29T12:32:45;1.80;;;1.20;;
68951;SDS011;56000;51.146;17.112;2023-07-29T12:35:19;1.30;;;1.20;;
68951;SDS011;56000;51.146;17.112;2023-07-29T12:38:00;2.00;;;1.80;;
68951;SDS011;56000;51.146;17.112;2023-07-29T12:40:37;3.00;;;1.20;;
68951;SDS011;56000;51.146;17.112;2023-07-29T12:43:12;1.40;;;1.30;;
68951;SDS011;56000;51.146;17.112;2023-07-29T12:45:45;1.10;;;1.10;;
68951;SDS011;56000;51.146;17.112;2023-07-29T12:48:20;6.60;;;1.80;;
68951;SDS011;56000;51.146;17.112;2023-07-29T12:50:53;1.50;;;1.40;;
68951;SDS011;56000;51.146;17.112;2023-07-29T12:53:26;1.30;;;1.20;;
68951;SDS011;56000;51.146;17.112;2023-07-29T12:55:59;1.90;;;1.30;;
68951;SDS011;56000;51.146;17.112;2023-07-29T12:58:32;2.30;;;1.30;;
68951;SDS011;56000;51.146;17.112;2023-07-29T13:01:05;1.30;;;1.20;;
68951;SDS011;56000;51.146;17.112;2023-07-29T13:03:39;1.30;;;1.20;;
68951;SDS011;56000;51.146;17.112;2023-07-29T13:06:13;1.80;;;1.20;;
68951;SDS011;56000;51.146;17.112;2023-07-29T13:08:47;1.00;;;1.00;;
68951;SDS011;56000;51.146;17.112;2023-07-29T13:11:20;3.50;;;1.80;;
68951;SDS011;56000;51.146;17.112;2023-07-29T13:13:53;1.80;;;1.30;;
68951;SDS011;56000;51.146;17.112;2023-07-29T13:16:26;3.60;;;1.60;;
68951;SDS011;56000;51.146;17.112;2023-07-29T13:19:00;2.40;;;1.30;;
68951;SDS011;56000;51.146;17.112;2023-07-29T13:21:33;4.70;;;3.00;;
68951;SDS011;56000;51.146;17.112;2023-07-29T13:24:06;3.50;;;1.60;;
68951;SDS011;56000;51.146;17.112;2023-07-29T13:26:39;6.10;;;3.00;;
68951;SDS011;56000;51.146;17.112;2023-07-29T13:29:12;1.20;;;1.20;;
68951;SDS011;56000;51.146;17.112;2023-07-29T13:31:45;7.20;;;1.50;;
68951;SDS011;56000;51.146;17.112;2023-07-29T13:34:19;1.40;;;1.30;;
68951;SDS011;56000;51.146;17.112;2023-07-29T13:36:52;1.40;;;1.20;;
68951;SDS011;56000;51.146;17.112;2023-07-29T13:39:26;1.50;;;1.30;;
68951;SDS011;56000;51.146;17.112;2023-07-29T13:41:59;2.50;;;2.00;;
68951;SDS011;56000;51.146;17.112;2023-07-29T13:44:32;3.70;;;1.20;;
68951;SDS011;56000;51.146;17.112;2023-07-29T13:47:06;3.90;;;2.00;;
68951;SDS011;56000;51.146;17.112;2023-07-29T13:49:39;6.00;;;1.40;;
68951;SDS011;56000;51.146;17.112;2023-07-29T13:52:13;3.50;;;1.70;;
68951;SDS011;56000;51.146;17.112;2023-07-29T13:54:46;2.00;;;1.30;;
68951;SDS011;56000;51.146;17.112;2023-07-29T13:57:19;2.10;;;1.30;;
68951;SDS011;56000;51.146;17.112;2023-07-29T13:59:53;1.10;;;1.10;;
68951;SDS011;56000;51.146;17.112;2023-07-29T14:02:26;3.20;;;1.50;;
68951;SDS011;56000;51.146;17.112;2023-07-29T14:05:01;4.00;;;1.60;;
68951;SDS011;56000;51.146;17.112;2023-07-29T14:07:35;3.40;;;2.80;;
68951;SDS011;56000;51.146;17.112;2023-07-29T14:10:08;3.50;;;1.80;;
68951;SDS011;56000;51.146;17.112;2023-07-29T14:12:42;1.50;;;1.10;;
68951;SDS011;56000;51.146;17.112;2023-07-29T14:15:15;3.90;;;1.60;;
68951;SDS011;56000;51.146;17.112;2023-07-29T14:17:48;1.80;;;1.40;;
68951;SDS011;56000;51.146;17.112;2023-07-29T14:20:23;1.50;;;1.40;;
68951;SDS011;56000;51.146;17.112;2023-07-29T14:22:56;4.50;;;1.70;;
68951;SDS011;56000;51.146;17.112;2023-07-29T14:25:30;4.40;;;1.40;;
68951;SDS011;56000;51.146;17.112;2023-07-29T14:28:03;1.30;;;1.20;;
68951;SDS011;56000;51.146;17.112;2023-07-29T14:30:36;1.30;;;1.20;;
68951;SDS011;56000;51.146;17.112;2023-07-29T14:33:11;2.20;;;1.20;;
68951;SDS011;56000;51.146;17.112;2023-07-29T14:35:44;2.50;;;1.50;;
68951;SDS011;56000;51.146;17.112;2023-07-29T14:38:18;2.70;;;1.20;;
68951;SDS011;56000;51.146;17.112;2023-07-29T14:40:51;2.00;;;1.40;;
68951;SDS011;56000;51.146;17.112;2023-07-29T14:43:24;3.20;;;1.50;;
68951;SDS011;56000;51.146;17.112;2023-07-29T14:45:57;3.70;;;1.40;;
68951;SDS011;56000;51.146;17.112;2023-07-29T14:48:31;3.90;;;1.40;;
68951;SDS011;56000;51.146;17.112;2023-07-29T14:51:04;1.50;;;1.10;;
68951;SDS011;56000;51.146;17.112;2023-07-29T14:53:37;1.10;;;1.10;;
68951;SDS011;56000;51.146;17.112;2023-07-29T14:56:11;3.10;;;1.30;;
68951;SDS011;56000;51.146;17.112;2023-07-29T14:58:48;1.10;;;1.10;;
68951;SDS011;56000;51.146;17.112;2023-07-29T15:01:22;1.90;;;1.20;;
68951;SDS011;56000;51.146;17.112;2023-07-29T15:03:55;2.40;;;1.30;;
68951;SDS011;56000;51.146;17.112;2023-07-29T15:06:28;1.10;;;1.00;;
68951;SDS011;56000;51.146;17.112;2023-07-29T15:09:01;5.30;;;2.20;;
68951;SDS011;56000;51.146;17.112;2023-07-29T15:11:35;1.40;;;1.30;;
68951;SDS011;56000;51.146;17.112;2023-07-29T15:14:08;4.10;;;1.20;;
68951;SDS011;56000;51.146;17.112;2023-07-29T15:16:41;3.30;;;1.40;;